Petersburg, AK

11:07 PM AKDT on March 26, 2015 (GMT -0800)
Wrangell | | Change Station
CLOSE
Current Station
Airport
Location: Wrangell,
Elevation: 43 ft
Nearby Weather Stations

Elev 43 ft 56.48 °N, 132.37 °W | Updated 11 minutes ago

Scattered Clouds
Scattered Clouds
43 °F
Feels Like 39 °F
N
7
Wind Variable Wind from ESE

Today
High -- | Low -- °F
--% Chance of Precip.
Yesterday
High -- | Low -- °F
Precip. -- in
6:39 AM 7:19 PM
Waxing Crescent, 50% visible
Pressure 29.98 in
Visibility 10.0 miles
Clouds Scattered Clouds 3000 ft
Scattered Clouds 5000 ft
Windchill 39 °F
Dew Point 39 °F
Humidity 87%
Rainfall 0.78 in
Snow Depth Not available.
UV 0 out of 12
Pollen Not available.
Air Quality Not available.
Flu Activity Not available.
METAR PAWG 270656Z 12006KT 10SM SCT030 SCT050 06/04 A2998 RMK AO1 WEA:NONE LAST MJ

More Conditions Fewer Conditions

Pressure 29.98 in
Visibility 10.0 miles
Clouds Scattered Clouds 3000 ft
Scattered Clouds 5000 ft
Windchill 39 °F
Dew Point 39 °F
Humidity 87%
Rainfall 0.78 in
Snow Depth Not available.
UV 0 out of 12
Pollen Not available.
Air Quality Not available.
Flu Activity Not available.
METAR PAWG 270656Z 12006KT 10SM SCT030 SCT050 06/04 A2998 RMK AO1 WEA:NONE LAST MJ

More Conditions Fewer Conditions

10-Day Weather Forecast

Almanac

Astronomy

Mar. 26, 2015 Rise Set
Actual Time
Civil Twilight
Nautical Twilight
Astronomical Twilight
Moon
Length of Visible Light
Length of Day
Tomorrow will be .
, % of the Moon is Illuminated

Today's Extremes

State Highs State Lows

Community

WunderPhotos

Upload Photos

1,808,700 photos uploaded!

WunderBlogs® & News

Nearby

Air Quality

  Air Quality AQ Index Pollutant
Not available.

Snow Depth

Station Depth Elevation

Earthquake Activity

City Distance Mag. Time & Date
Minimum magnitude displayed is 2.5.

Coastal Water Temperatures

Place Temperature

Stations

Nearby Weather Stations

Station Location Temp. Windchill Dew Point Humidity Wind Precip. Elev Updated Type